sensor_id;sensor_type;location;lat;lon;timestamp;P1;durP1;ratioP1;P2;durP2;ratioP2
3443;SDS011;1736;52.068;6.968;2023-09-08T00:01:57;9.00;;;5.97;;
3443;SDS011;1736;52.068;6.968;2023-09-08T00:04:24;6.93;;;6.33;;
3443;SDS011;1736;52.068;6.968;2023-09-08T00:06:50;9.00;;;5.60;;
3443;SDS011;1736;52.068;6.968;2023-09-08T00:09:17;7.37;;;6.33;;
3443;SDS011;1736;52.068;6.968;2023-09-08T00:11:45;13.53;;;6.90;;
3443;SDS011;1736;52.068;6.968;2023-09-08T00:14:11;7.53;;;5.60;;
3443;SDS011;1736;52.068;6.968;2023-09-08T00:16:38;8.40;;;5.97;;
3443;SDS011;1736;52.068;6.968;2023-09-08T00:19:07;6.00;;;5.40;;
3443;SDS011;1736;52.068;6.968;2023-09-08T00:21:36;6.90;;;6.20;;
3443;SDS011;1736;52.068;6.968;2023-09-08T00:24:04;9.37;;;6.60;;
3443;SDS011;1736;52.068;6.968;2023-09-08T00:26:31;8.33;;;6.53;;
3443;SDS011;1736;52.068;6.968;2023-09-08T00:29:00;10.37;;;6.20;;
3443;SDS011;1736;52.068;6.968;2023-09-08T00:31:27;10.20;;;6.43;;
3443;SDS011;1736;52.068;6.968;2023-09-08T00:33:53;13.67;;;7.27;;
3443;SDS011;1736;52.068;6.968;2023-09-08T00:36:20;14.47;;;8.47;;
3443;SDS011;1736;52.068;6.968;2023-09-08T00:38:46;12.20;;;7.40;;
3443;SDS011;1736;52.068;6.968;2023-09-08T00:41:13;12.23;;;7.70;;
3443;SDS011;1736;52.068;6.968;2023-09-08T00:43:40;11.27;;;7.93;;
3443;SDS011;1736;52.068;6.968;2023-09-08T00:46:07;14.07;;;9.03;;
3443;SDS011;1736;52.068;6.968;2023-09-08T00:48:34;19.23;;;10.53;;
3443;SDS011;1736;52.068;6.968;2023-09-08T00:51:01;21.93;;;9.67;;
3443;SDS011;1736;52.068;6.968;2023-09-08T00:53:30;13.77;;;8.27;;
3443;SDS011;1736;52.068;6.968;2023-09-08T00:55:56;17.63;;;9.67;;
3443;SDS011;1736;52.068;6.968;2023-09-08T00:58:25;8.87;;;6.57;;
3443;SDS011;1736;52.068;6.968;2023-09-08T01:00:51;9.77;;;6.90;;
3443;SDS011;1736;52.068;6.968;2023-09-08T01:03:19;9.90;;;6.97;;
3443;SDS011;1736;52.068;6.968;2023-09-08T01:05:46;9.20;;;6.53;;
3443;SDS011;1736;52.068;6.968;2023-09-08T01:08:14;10.37;;;6.83;;
3443;SDS011;1736;52.068;6.968;2023-09-08T01:10:41;9.30;;;7.70;;
3443;SDS011;1736;52.068;6.968;2023-09-08T01:13:08;14.77;;;9.00;;
3443;SDS011;1736;52.068;6.968;2023-09-08T01:15:35;16.30;;;9.50;;
3443;SDS011;1736;52.068;6.968;2023-09-08T01:18:02;15.40;;;7.93;;
3443;SDS011;1736;52.068;6.968;2023-09-08T01:20:32;11.03;;;7.57;;
3443;SDS011;1736;52.068;6.968;2023-09-08T01:23:17;9.10;;;7.00;;
3443;SDS011;1736;52.068;6.968;2023-09-08T01:25:49;9.07;;;7.07;;
3443;SDS011;1736;52.068;6.968;2023-09-08T01:28:19;11.60;;;7.30;;
3443;SDS011;1736;52.068;6.968;2023-09-08T01:30:48;9.83;;;7.17;;
3443;SDS011;1736;52.068;6.968;2023-09-08T01:33:16;12.23;;;7.83;;
3443;SDS011;1736;52.068;6.968;2023-09-08T01:35:43;8.90;;;6.90;;
3443;SDS011;1736;52.068;6.968;2023-09-08T01:38:10;8.10;;;6.60;;
3443;SDS011;1736;52.068;6.968;2023-09-08T01:40:37;8.27;;;7.17;;
3443;SDS011;1736;52.068;6.968;2023-09-08T01:43:05;10.97;;;7.40;;
3443;SDS011;1736;52.068;6.968;2023-09-08T01:45:31;9.40;;;7.90;;
3443;SDS011;1736;52.068;6.968;2023-09-08T01:47:58;9.00;;;7.30;;
3443;SDS011;1736;52.068;6.968;2023-09-08T01:50:25;7.93;;;7.13;;
3443;SDS011;1736;52.068;6.968;2023-09-08T01:52:51;8.63;;;7.20;;
3443;SDS011;1736;52.068;6.968;2023-09-08T01:55:18;9.13;;;6.77;;
3443;SDS011;1736;52.068;6.968;2023-09-08T01:57:45;8.47;;;6.90;;
3443;SDS011;1736;52.068;6.968;2023-09-08T02:00:14;12.90;;;6.40;;
3443;SDS011;1736;52.068;6.968;2023-09-08T02:02:41;9.60;;;7.17;;
3443;SDS011;1736;52.068;6.968;2023-09-08T02:05:07;9.80;;;6.93;;
3443;SDS011;1736;52.068;6.968;2023-09-08T02:07:34;8.00;;;7.00;;
3443;SDS011;1736;52.068;6.968;2023-09-08T02:10:01;9.07;;;7.00;;
3443;SDS011;1736;52.068;6.968;2023-09-08T02:12:27;7.53;;;6.57;;
3443;SDS011;1736;52.068;6.968;2023-09-08T02:14:54;9.57;;;6.77;;
3443;SDS011;1736;52.068;6.968;2023-09-08T02:17:23;9.93;;;7.13;;
3443;SDS011;1736;52.068;6.968;2023-09-08T02:19:49;12.43;;;7.47;;
3443;SDS011;1736;52.068;6.968;2023-09-08T02:22:16;8.10;;;6.60;;
3443;SDS011;1736;52.068;6.968;2023-09-08T02:24:42;8.20;;;7.37;;
3443;SDS011;1736;52.068;6.968;2023-09-08T02:27:09;8.40;;;6.90;;
3443;SDS011;1736;52.068;6.968;2023-09-08T02:29:35;9.30;;;7.30;;
3443;SDS011;1736;52.068;6.968;2023-09-08T02:32:02;8.00;;;7.20;;
3443;SDS011;1736;52.068;6.968;2023-09-08T02:34:33;8.20;;;7.27;;
3443;SDS011;1736;52.068;6.968;2023-09-08T02:37:01;10.43;;;7.70;;
3443;SDS011;1736;52.068;6.968;2023-09-08T02:39:28;9.83;;;7.67;;
3443;SDS011;1736;52.068;6.968;2023-09-08T02:41:54;8.10;;;7.00;;
3443;SDS011;1736;52.068;6.968;2023-09-08T02:44:21;11.77;;;8.93;;
3443;SDS011;1736;52.068;6.968;2023-09-08T02:46:48;12.40;;;7.93;;
3443;SDS011;1736;52.068;6.968;2023-09-08T02:49:14;8.13;;;7.20;;
3443;SDS011;1736;52.068;6.968;2023-09-08T02:51:42;10.80;;;8.17;;
3443;SDS011;1736;52.068;6.968;2023-09-08T02:54:09;9.83;;;8.40;;
3443;SDS011;1736;52.068;6.968;2023-09-08T02:56:35;12.97;;;8.07;;
3443;SDS011;1736;52.068;6.968;2023-09-08T02:59:02;10.53;;;7.83;;
3443;SDS011;1736;52.068;6.968;2023-09-08T03:01:29;13.07;;;9.23;;
3443;SDS011;1736;52.068;6.968;2023-09-08T03:03:55;14.70;;;9.03;;
3443;SDS011;1736;52.068;6.968;2023-09-08T03:06:22;10.80;;;8.63;;
3443;SDS011;1736;52.068;6.968;2023-09-08T03:08:50;11.90;;;9.60;;
3443;SDS011;1736;52.068;6.968;2023-09-08T03:11:17;10.47;;;8.90;;
3443;SDS011;1736;52.068;6.968;2023-09-08T03:13:43;12.80;;;10.07;;
3443;SDS011;1736;52.068;6.968;2023-09-08T03:16:10;12.70;;;9.17;;
3443;SDS011;1736;52.068;6.968;2023-09-08T03:18:36;11.10;;;8.80;;
3443;SDS011;1736;52.068;6.968;2023-09-08T03:21:04;12.07;;;9.13;;
3443;SDS011;1736;52.068;6.968;2023-09-08T03:23:35;13.70;;;9.77;;
3443;SDS011;1736;52.068;6.968;2023-09-08T03:26:03;12.57;;;9.53;;
3443;SDS011;1736;52.068;6.968;2023-09-08T03:28:30;11.20;;;9.27;;
3443;SDS011;1736;52.068;6.968;2023-09-08T03:30:58;14.20;;;8.80;;
3443;SDS011;1736;52.068;6.968;2023-09-08T03:33:25;13.10;;;9.80;;
3443;SDS011;1736;52.068;6.968;2023-09-08T03:35:51;12.83;;;9.33;;
3443;SDS011;1736;52.068;6.968;2023-09-08T03:38:18;16.80;;;10.07;;
3443;SDS011;1736;52.068;6.968;2023-09-08T03:40:44;14.10;;;9.10;;
3443;SDS011;1736;52.068;6.968;2023-09-08T03:43:12;12.57;;;9.83;;
3443;SDS011;1736;52.068;6.968;2023-09-08T03:45:39;11.77;;;8.53;;
3443;SDS011;1736;52.068;6.968;2023-09-08T03:48:06;10.47;;;8.70;;
3443;SDS011;1736;52.068;6.968;2023-09-08T03:50:33;10.40;;;8.83;;
3443;SDS011;1736;52.068;6.968;2023-09-08T03:53:00;12.03;;;9.20;;
3443;SDS011;1736;52.068;6.968;2023-09-08T03:55:27;10.87;;;8.50;;
3443;SDS011;1736;52.068;6.968;2023-09-08T03:57:54;15.20;;;9.00;;
3443;SDS011;1736;52.068;6.968;2023-09-08T04:00:22;12.10;;;8.93;;
3443;SDS011;1736;52.068;6.968;2023-09-08T04:02:48;16.20;;;8.90;;
3443;SDS011;1736;52.068;6.968;2023-09-08T04:05:16;11.43;;;8.73;;
3443;SDS011;1736;52.068;6.968;2023-09-08T04:07:44;11.80;;;8.80;;
3443;SDS011;1736;52.068;6.968;2023-09-08T04:10:11;18.87;;;8.80;;
3443;SDS011;1736;52.068;6.968;2023-09-08T04:12:38;11.60;;;9.10;;
3443;SDS011;1736;52.068;6.968;2023-09-08T04:15:05;12.63;;;9.53;;
3443;SDS011;1736;52.068;6.968;2023-09-08T04:17:34;19.20;;;9.13;;
3443;SDS011;1736;52.068;6.968;2023-09-08T04:20:01;13.00;;;9.30;;
3443;SDS011;1736;52.068;6.968;2023-09-08T04:22:29;14.37;;;8.70;;
3443;SDS011;1736;52.068;6.968;2023-09-08T04:24:55;12.87;;;9.30;;
3443;SDS011;1736;52.068;6.968;2023-09-08T04:27:22;14.30;;;9.00;;
3443;SDS011;1736;52.068;6.968;2023-09-08T04:29:49;12.23;;;9.20;;
3443;SDS011;1736;52.068;6.968;2023-09-08T04:32:15;16.90;;;9.50;;
3443;SDS011;1736;52.068;6.968;2023-09-08T04:34:43;11.60;;;9.17;;
3443;SDS011;1736;52.068;6.968;2023-09-08T04:37:10;13.20;;;9.60;;
3443;SDS011;1736;52.068;6.968;2023-09-08T04:39:36;12.20;;;8.47;;
3443;SDS011;1736;52.068;6.968;2023-09-08T04:42:03;17.23;;;9.30;;
3443;SDS011;1736;52.068;6.968;2023-09-08T04:44:30;11.33;;;9.07;;
3443;SDS011;1736;52.068;6.968;2023-09-08T04:46:57;12.67;;;9.30;;
3443;SDS011;1736;52.068;6.968;2023-09-08T04:49:23;11.10;;;8.30;;
3443;SDS011;1736;52.068;6.968;2023-09-08T04:51:51;12.10;;;8.83;;
3443;SDS011;1736;52.068;6.968;2023-09-08T04:54:19;14.40;;;9.23;;
3443;SDS011;1736;52.068;6.968;2023-09-08T04:56:47;15.37;;;10.30;;
3443;SDS011;1736;52.068;6.968;2023-09-08T04:59:14;11.20;;;8.97;;
3443;SDS011;1736;52.068;6.968;2023-09-08T05:01:40;12.90;;;10.30;;
3443;SDS011;1736;52.068;6.968;2023-09-08T05:04:08;11.87;;;9.40;;
3443;SDS011;1736;52.068;6.968;2023-09-08T05:06:35;13.03;;;9.97;;
3443;SDS011;1736;52.068;6.968;2023-09-08T05:09:03;12.33;;;9.97;;
3443;SDS011;1736;52.068;6.968;2023-09-08T05:11:32;12.03;;;9.10;;
3443;SDS011;1736;52.068;6.968;2023-09-08T05:13:58;13.20;;;9.53;;
3443;SDS011;1736;52.068;6.968;2023-09-08T05:16:25;14.30;;;10.10;;
3443;SDS011;1736;52.068;6.968;2023-09-08T05:19:02;12.03;;;9.87;;
3443;SDS011;1736;52.068;6.968;2023-09-08T05:21:28;12.20;;;9.80;;
3443;SDS011;1736;52.068;6.968;2023-09-08T05:23:57;18.37;;;10.20;;
3443;SDS011;1736;52.068;6.968;2023-09-08T05:26:25;12.17;;;9.73;;
3443;SDS011;1736;52.068;6.968;2023-09-08T05:28:52;11.30;;;9.80;;
3443;SDS011;1736;52.068;6.968;2023-09-08T05:31:18;13.70;;;9.40;;
3443;SDS011;1736;52.068;6.968;2023-09-08T05:33:45;9.27;;;8.13;;
3443;SDS011;1736;52.068;6.968;2023-09-08T05:36:11;11.03;;;8.73;;
3443;SDS011;1736;52.068;6.968;2023-09-08T05:38:38;13.37;;;9.47;;
3443;SDS011;1736;52.068;6.968;2023-09-08T05:41:04;9.17;;;8.13;;
3443;SDS011;1736;52.068;6.968;2023-09-08T05:43:32;13.20;;;9.30;;
3443;SDS011;1736;52.068;6.968;2023-09-08T05:45:59;11.43;;;8.90;;
3443;SDS011;1736;52.068;6.968;2023-09-08T05:48:26;11.33;;;8.97;;
3443;SDS011;1736;52.068;6.968;2023-09-08T05:50:53;10.20;;;8.40;;
3443;SDS011;1736;52.068;6.968;2023-09-08T05:53:19;10.97;;;8.60;;
3443;SDS011;1736;52.068;6.968;2023-09-08T05:55:46;10.53;;;8.27;;
3443;SDS011;1736;52.068;6.968;2023-09-08T05:58:12;15.77;;;10.10;;
3443;SDS011;1736;52.068;6.968;2023-09-08T06:00:41;11.30;;;8.97;;
3443;SDS011;1736;52.068;6.968;2023-09-08T06:03:07;12.30;;;9.20;;
3443;SDS011;1736;52.068;6.968;2023-09-08T06:05:34;11.17;;;8.90;;
3443;SDS011;1736;52.068;6.968;2023-09-08T06:08:00;11.77;;;8.63;;
3443;SDS011;1736;52.068;6.968;2023-09-08T06:10:27;9.50;;;8.10;;
3443;SDS011;1736;52.068;6.968;2023-09-08T06:12:55;16.40;;;8.40;;
3443;SDS011;1736;52.068;6.968;2023-09-08T06:15:22;16.20;;;9.43;;
3443;SDS011;1736;52.068;6.968;2023-09-08T06:17:50;10.33;;;7.80;;
3443;SDS011;1736;52.068;6.968;2023-09-08T06:20:17;12.90;;;8.80;;
3443;SDS011;1736;52.068;6.968;2023-09-08T06:22:43;13.57;;;8.30;;
3443;SDS011;1736;52.068;6.968;2023-09-08T06:25:10;9.23;;;7.30;;
3443;SDS011;1736;52.068;6.968;2023-09-08T06:27:36;10.30;;;7.67;;
3443;SDS011;1736;52.068;6.968;2023-09-08T06:30:03;9.83;;;7.87;;
3443;SDS011;1736;52.068;6.968;2023-09-08T06:32:30;21.30;;;8.40;;
3443;SDS011;1736;52.068;6.968;2023-09-08T06:34:59;10.63;;;7.93;;
3443;SDS011;1736;52.068;6.968;2023-09-08T06:37:25;10.83;;;7.13;;
3443;SDS011;1736;52.068;6.968;2023-09-08T06:39:54;8.80;;;7.80;;
3443;SDS011;1736;52.068;6.968;2023-09-08T06:42:20;17.27;;;8.50;;
3443;SDS011;1736;52.068;6.968;2023-09-08T06:44:47;10.37;;;7.10;;
3443;SDS011;1736;52.068;6.968;2023-09-08T06:47:14;8.83;;;7.27;;
3443;SDS011;1736;52.068;6.968;2023-09-08T06:49:40;8.43;;;6.20;;
3443;SDS011;1736;52.068;6.968;2023-09-08T06:52:08;9.30;;;6.70;;
3443;SDS011;1736;52.068;6.968;2023-09-08T06:54:35;8.83;;;7.20;;
3443;SDS011;1736;52.068;6.968;2023-09-08T06:57:02;8.43;;;6.30;;
3443;SDS011;1736;52.068;6.968;2023-09-08T06:59:29;7.50;;;6.37;;
3443;SDS011;1736;52.068;6.968;2023-09-08T07:01:55;8.83;;;6.37;;
3443;SDS011;1736;52.068;6.968;2023-09-08T07:04:22;6.60;;;5.73;;
3443;SDS011;1736;52.068;6.968;2023-09-08T07:06:49;8.33;;;6.30;;
3443;SDS011;1736;52.068;6.968;2023-09-08T07:09:18;7.03;;;6.13;;
3443;SDS011;1736;52.068;6.968;2023-09-08T07:11:44;6.60;;;5.87;;
3443;SDS011;1736;52.068;6.968;2023-09-08T07:14:11;8.07;;;6.20;;
3443;SDS011;1736;52.068;6.968;2023-09-08T07:16:38;6.77;;;5.93;;
3443;SDS011;1736;52.068;6.968;2023-09-08T07:19:05;8.17;;;6.27;;
3443;SDS011;1736;52.068;6.968;2023-09-08T07:21:31;9.13;;;6.07;;
3443;SDS011;1736;52.068;6.968;2023-09-08T07:23:58;6.20;;;5.60;;
3443;SDS011;1736;52.068;6.968;2023-09-08T07:26:26;7.30;;;5.70;;
3443;SDS011;1736;52.068;6.968;2023-09-08T07:28:53;11.30;;;5.80;;
3443;SDS011;1736;52.068;6.968;2023-09-08T07:31:20;6.70;;;5.73;;
3443;SDS011;1736;52.068;6.968;2023-09-08T07:33:47;6.70;;;5.50;;
3443;SDS011;1736;52.068;6.968;2023-09-08T07:36:13;6.77;;;5.83;;
3443;SDS011;1736;52.068;6.968;2023-09-08T07:38:40;6.00;;;5.40;;
3443;SDS011;1736;52.068;6.968;2023-09-08T07:41:07;7.03;;;5.17;;
3443;SDS011;1736;52.068;6.968;2023-09-08T07:43:35;6.33;;;5.67;;
3443;SDS011;1736;52.068;6.968;2023-09-08T07:46:05;11.27;;;5.57;;
3443;SDS011;1736;52.068;6.968;2023-09-08T07:48:32;11.10;;;5.40;;
3443;SDS011;1736;52.068;6.968;2023-09-08T07:50:58;6.60;;;5.17;;
3443;SDS011;1736;52.068;6.968;2023-09-08T07:53:25;10.93;;;5.47;;
3443;SDS011;1736;52.068;6.968;2023-09-08T07:55:52;13.27;;;5.57;;
3443;SDS011;1736;52.068;6.968;2023-09-08T07:58:19;5.27;;;4.77;;
3443;SDS011;1736;52.068;6.968;2023-09-08T08:00:47;6.40;;;5.03;;
3443;SDS011;1736;52.068;6.968;2023-09-08T08:03:13;5.63;;;5.03;;
3443;SDS011;1736;52.068;6.968;2023-09-08T08:05:40;5.30;;;4.80;;
3443;SDS011;1736;52.068;6.968;2023-09-08T08:08:06;11.30;;;5.67;;
3443;SDS011;1736;52.068;6.968;2023-09-08T08:10:34;5.93;;;4.40;;
3443;SDS011;1736;52.068;6.968;2023-09-08T08:13:01;6.40;;;5.30;;
3443;SDS011;1736;52.068;6.968;2023-09-08T08:15:34;10.03;;;5.40;;
3443;SDS011;1736;52.068;6.968;2023-09-08T08:18:03;7.10;;;5.30;;
3443;SDS011;1736;52.068;6.968;2023-09-08T08:20:30;14.20;;;4.97;;
3443;SDS011;1736;52.068;6.968;2023-09-08T08:22:59;7.97;;;5.07;;
3443;SDS011;1736;52.068;6.968;2023-09-08T08:25:26;6.00;;;4.80;;
3443;SDS011;1736;52.068;6.968;2023-09-08T08:27:53;8.83;;;5.03;;
3443;SDS011;1736;52.068;6.968;2023-09-08T08:30:19;5.47;;;4.97;;
3443;SDS011;1736;52.068;6.968;2023-09-08T08:32:46;5.27;;;4.77;;
3443;SDS011;1736;52.068;6.968;2023-09-08T08:35:14;6.30;;;4.63;;
3443;SDS011;1736;52.068;6.968;2023-09-08T08:37:41;6.17;;;4.90;;
3443;SDS011;1736;52.068;6.968;2023-09-08T08:40:09;12.43;;;5.00;;
3443;SDS011;1736;52.068;6.968;2023-09-08T08:42:37;9.03;;;4.37;;
3443;SDS011;1736;52.068;6.968;2023-09-08T08:45:04;4.90;;;4.47;;
3443;SDS011;1736;52.068;6.968;2023-09-08T08:47:31;7.37;;;5.10;;
3443;SDS011;1736;52.068;6.968;2023-09-08T08:49:58;7.93;;;4.57;;
3443;SDS011;1736;52.068;6.968;2023-09-08T08:52:28;6.40;;;4.10;;
3443;SDS011;1736;52.068;6.968;2023-09-08T08:54:55;6.80;;;5.23;;
3443;SDS011;1736;52.068;6.968;2023-09-08T08:57:22;5.50;;;4.80;;
3443;SDS011;1736;52.068;6.968;2023-09-08T08:59:51;6.60;;;5.90;;
3443;SDS011;1736;52.068;6.968;2023-09-08T09:02:19;5.03;;;4.50;;
3443;SDS011;1736;52.068;6.968;2023-09-08T09:04:45;5.70;;;5.00;;
3443;SDS011;1736;52.068;6.968;2023-09-08T09:07:13;5.00;;;4.50;;
3443;SDS011;1736;52.068;6.968;2023-09-08T09:09:41;6.67;;;5.20;;
3443;SDS011;1736;52.068;6.968;2023-09-08T09:12:08;6.03;;;4.83;;
3443;SDS011;1736;52.068;6.968;2023-09-08T09:14:34;6.17;;;4.77;;
3443;SDS011;1736;52.068;6.968;2023-09-08T09:17:01;9.20;;;4.60;;
3443;SDS011;1736;52.068;6.968;2023-09-08T09:19:30;6.57;;;4.80;;
3443;SDS011;1736;52.068;6.968;2023-09-08T09:21:57;4.90;;;4.27;;
3443;SDS011;1736;52.068;6.968;2023-09-08T09:24:28;6.37;;;4.97;;
3443;SDS011;1736;52.068;6.968;2023-09-08T09:26:57;7.63;;;5.10;;
3443;SDS011;1736;52.068;6.968;2023-09-08T09:29:24;5.33;;;4.60;;
3443;SDS011;1736;52.068;6.968;2023-09-08T09:31:51;6.30;;;4.60;;
3443;SDS011;1736;52.068;6.968;2023-09-08T09:34:20;5.87;;;5.00;;
3443;SDS011;1736;52.068;6.968;2023-09-08T09:36:47;6.90;;;4.80;;
3443;SDS011;1736;52.068;6.968;2023-09-08T09:39:16;7.73;;;5.20;;
3443;SDS011;1736;52.068;6.968;2023-09-08T09:41:43;8.30;;;4.60;;
3443;SDS011;1736;52.068;6.968;2023-09-08T09:44:12;5.30;;;4.50;;
3443;SDS011;1736;52.068;6.968;2023-09-08T09:46:39;5.20;;;4.60;;
3443;SDS011;1736;52.068;6.968;2023-09-08T09:49:09;8.67;;;4.90;;
3443;SDS011;1736;52.068;6.968;2023-09-08T09:51:39;6.10;;;4.47;;
3443;SDS011;1736;52.068;6.968;2023-09-08T09:54:06;5.30;;;4.80;;
3443;SDS011;1736;52.068;6.968;2023-09-08T09:56:33;5.47;;;4.63;;
3443;SDS011;1736;52.068;6.968;2023-09-08T09:59:03;8.53;;;4.70;;
3443;SDS011;1736;52.068;6.968;2023-09-08T10:01:31;6.00;;;5.37;;
3443;SDS011;1736;52.068;6.968;2023-09-08T10:03:58;9.30;;;5.90;;
3443;SDS011;1736;52.068;6.968;2023-09-08T10:06:27;6.27;;;4.70;;
3443;SDS011;1736;52.068;6.968;2023-09-08T10:08:56;5.43;;;4.93;;
3443;SDS011;1736;52.068;6.968;2023-09-08T10:11:25;9.43;;;4.60;;
3443;SDS011;1736;52.068;6.968;2023-09-08T10:13:55;5.00;;;4.50;;
3443;SDS011;1736;52.068;6.968;2023-09-08T10:16:25;5.80;;;5.23;;
3443;SDS011;1736;52.068;6.968;2023-09-08T10:18:54;8.43;;;5.40;;
3443;SDS011;1736;52.068;6.968;2023-09-08T10:21:23;9.60;;;5.60;;
3443;SDS011;1736;52.068;6.968;2023-09-08T10:23:54;10.13;;;6.70;;
3443;SDS011;1736;52.068;6.968;2023-09-08T10:26:26;8.03;;;5.80;;
3443;SDS011;1736;52.068;6.968;2023-09-08T10:28:54;7.13;;;5.50;;
3443;SDS011;1736;52.068;6.968;2023-09-08T10:31:22;6.20;;;5.60;;
3443;SDS011;1736;52.068;6.968;2023-09-08T10:33:52;9.50;;;6.20;;
3443;SDS011;1736;52.068;6.968;2023-09-08T10:36:21;9.60;;;4.97;;
3443;SDS011;1736;52.068;6.968;2023-09-08T10:38:47;6.03;;;5.43;;
3443;SDS011;1736;52.068;6.968;2023-09-08T10:41:26;9.67;;;5.70;;
3443;SDS011;1736;52.068;6.968;2023-09-08T10:43:57;6.20;;;5.60;;
3443;SDS011;1736;52.068;6.968;2023-09-08T10:46:27;5.40;;;4.90;;
3443;SDS011;1736;52.068;6.968;2023-09-08T10:49:00;12.77;;;5.80;;
3443;SDS011;1736;52.068;6.968;2023-09-08T10:51:28;8.07;;;5.20;;
3443;SDS011;1736;52.068;6.968;2023-09-08T10:53:55;6.50;;;5.90;;
3443;SDS011;1736;52.068;6.968;2023-09-08T10:56:22;9.97;;;4.80;;
3443;SDS011;1736;52.068;6.968;2023-09-08T10:58:53;9.33;;;5.93;;
3443;SDS011;1736;52.068;6.968;2023-09-08T11:01:20;6.90;;;5.47;;
3443;SDS011;1736;52.068;6.968;2023-09-08T11:03:51;5.60;;;5.00;;
3443;SDS011;1736;52.068;6.968;2023-09-08T11:06:20;10.80;;;5.50;;
3443;SDS011;1736;52.068;6.968;2023-09-08T11:08:48;7.67;;;5.83;;
3443;SDS011;1736;52.068;6.968;2023-09-08T11:11:18;5.90;;;5.30;;
3443;SDS011;1736;52.068;6.968;2023-09-08T11:13:45;6.97;;;5.63;;
3443;SDS011;1736;52.068;6.968;2023-09-08T11:16:12;5.63;;;5.00;;
3443;SDS011;1736;52.068;6.968;2023-09-08T11:18:41;8.37;;;6.27;;
3443;SDS011;1736;52.068;6.968;2023-09-08T11:21:09;6.37;;;5.77;;
3443;SDS011;1736;52.068;6.968;2023-09-08T11:23:37;6.93;;;5.20;;
3443;SDS011;1736;52.068;6.968;2023-09-08T11:26:04;6.17;;;5.40;;
3443;SDS011;1736;52.068;6.968;2023-09-08T11:28:33;5.70;;;5.13;;
3443;SDS011;1736;52.068;6.968;2023-09-08T11:30:59;12.80;;;5.70;;
3443;SDS011;1736;52.068;6.968;2023-09-08T11:33:26;6.13;;;5.13;;
3443;SDS011;1736;52.068;6.968;2023-09-08T11:35:53;5.80;;;5.30;;
3443;SDS011;1736;52.068;6.968;2023-09-08T11:38:24;6.77;;;6.07;;
3443;SDS011;1736;52.068;6.968;2023-09-08T11:40:53;6.30;;;5.50;;
3443;SDS011;1736;52.068;6.968;2023-09-08T11:43:21;7.50;;;5.83;;
3443;SDS011;1736;52.068;6.968;2023-09-08T11:45:56;6.17;;;5.57;;
3443;SDS011;1736;52.068;6.968;2023-09-08T11:48:24;6.40;;;5.37;;
3443;SDS011;1736;52.068;6.968;2023-09-08T11:50:52;10.53;;;6.50;;
3443;SDS011;1736;52.068;6.968;2023-09-08T11:53:19;5.53;;;5.03;;
3443;SDS011;1736;52.068;6.968;2023-09-08T11:55:47;6.10;;;5.50;;
3443;SDS011;1736;52.068;6.968;2023-09-08T11:58:15;11.07;;;5.73;;
3443;SDS011;1736;52.068;6.968;2023-09-08T12:00:44;12.23;;;6.03;;
3443;SDS011;1736;52.068;6.968;2023-09-08T12:03:13;6.43;;;5.77;;
3443;SDS011;1736;52.068;6.968;2023-09-08T12:05:41;7.63;;;5.57;;
3443;SDS011;1736;52.068;6.968;2023-09-08T12:08:10;8.77;;;5.10;;
3443;SDS011;1736;52.068;6.968;2023-09-08T12:10:40;10.03;;;5.70;;
3443;SDS011;1736;52.068;6.968;2023-09-08T12:13:07;7.00;;;6.10;;
3443;SDS011;1736;52.068;6.968;2023-09-08T12:15:36;7.30;;;6.00;;
3443;SDS011;1736;52.068;6.968;2023-09-08T12:18:04;7.43;;;5.53;;
3443;SDS011;1736;52.068;6.968;2023-09-08T12:20:32;10.10;;;5.70;;
3443;SDS011;1736;52.068;6.968;2023-09-08T12:23:01;7.70;;;5.87;;
3443;SDS011;1736;52.068;6.968;2023-09-08T12:25:29;6.60;;;6.00;;
3443;SDS011;1736;52.068;6.968;2023-09-08T12:27:57;9.10;;;6.47;;
3443;SDS011;1736;52.068;6.968;2023-09-08T12:30:24;9.57;;;6.00;;
3443;SDS011;1736;52.068;6.968;2023-09-08T12:32:56;6.67;;;5.43;;
3443;SDS011;1736;52.068;6.968;2023-09-08T12:35:24;8.60;;;6.00;;
3443;SDS011;1736;52.068;6.968;2023-09-08T12:37:53;6.77;;;5.50;;
3443;SDS011;1736;52.068;6.968;2023-09-08T12:40:23;6.97;;;6.27;;
3443;SDS011;1736;52.068;6.968;2023-09-08T12:42:49;5.70;;;4.87;;
3443;SDS011;1736;52.068;6.968;2023-09-08T12:45:17;8.57;;;5.70;;
3443;SDS011;1736;52.068;6.968;2023-09-08T12:47:44;8.80;;;5.60;;
3443;SDS011;1736;52.068;6.968;2023-09-08T12:50:12;6.83;;;5.50;;
3443;SDS011;1736;52.068;6.968;2023-09-08T12:52:39;6.97;;;5.80;;
3443;SDS011;1736;52.068;6.968;2023-09-08T12:55:06;6.27;;;5.00;;
3443;SDS011;1736;52.068;6.968;2023-09-08T12:57:33;7.07;;;5.57;;
3443;SDS011;1736;52.068;6.968;2023-09-08T13:00:00;5.97;;;5.37;;
3443;SDS011;1736;52.068;6.968;2023-09-08T13:02:26;5.67;;;5.17;;
3443;SDS011;1736;52.068;6.968;2023-09-08T13:04:53;7.33;;;5.63;;
3443;SDS011;1736;52.068;6.968;2023-09-08T13:07:21;9.10;;;5.63;;
3443;SDS011;1736;52.068;6.968;2023-09-08T13:09:48;10.03;;;5.17;;
3443;SDS011;1736;52.068;6.968;2023-09-08T13:12:15;6.40;;;5.17;;
3443;SDS011;1736;52.068;6.968;2023-09-08T13:14:42;6.73;;;5.67;;
3443;SDS011;1736;52.068;6.968;2023-09-08T13:17:09;16.23;;;5.30;;
3443;SDS011;1736;52.068;6.968;2023-09-08T13:19:36;12.90;;;5.23;;
3443;SDS011;1736;52.068;6.968;2023-09-08T13:22:03;10.27;;;5.90;;
3443;SDS011;1736;52.068;6.968;2023-09-08T13:24:32;5.13;;;4.63;;
3443;SDS011;1736;52.068;6.968;2023-09-08T13:26:59;7.50;;;5.60;;
3443;SDS011;1736;52.068;6.968;2023-09-08T13:29:25;9.13;;;6.10;;
3443;SDS011;1736;52.068;6.968;2023-09-08T13:31:53;7.50;;;5.90;;
3443;SDS011;1736;52.068;6.968;2023-09-08T13:34:19;6.60;;;5.93;;
3443;SDS011;1736;52.068;6.968;2023-09-08T13:36:46;7.20;;;5.70;;
3443;SDS011;1736;52.068;6.968;2023-09-08T13:39:13;8.77;;;5.87;;
3443;SDS011;1736;52.068;6.968;2023-09-08T13:41:45;7.13;;;5.50;;
3443;SDS011;1736;52.068;6.968;2023-09-08T13:44:13;8.83;;;6.00;;
3443;SDS011;1736;52.068;6.968;2023-09-08T13:46:39;6.63;;;5.90;;
3443;SDS011;1736;52.068;6.968;2023-09-08T13:49:06;7.07;;;5.57;;
3443;SDS011;1736;52.068;6.968;2023-09-08T13:51:33;8.90;;;5.50;;
3443;SDS011;1736;52.068;6.968;2023-09-08T13:53:59;12.43;;;6.10;;
3443;SDS011;1736;52.068;6.968;2023-09-08T13:56:26;8.80;;;6.30;;
3443;SDS011;1736;52.068;6.968;2023-09-08T13:58:54;7.13;;;5.80;;
3443;SDS011;1736;52.068;6.968;2023-09-08T14:01:20;9.13;;;6.20;;
3443;SDS011;1736;52.068;6.968;2023-09-08T14:03:47;8.10;;;5.80;;
3443;SDS011;1736;52.068;6.968;2023-09-08T14:06:16;6.67;;;5.90;;
3443;SDS011;1736;52.068;6.968;2023-09-08T14:08:43;10.90;;;6.50;;
3443;SDS011;1736;52.068;6.968;2023-09-08T14:11:10;8.10;;;6.03;;
3443;SDS011;1736;52.068;6.968;2023-09-08T14:13:37;8.63;;;6.20;;
3443;SDS011;1736;52.068;6.968;2023-09-08T14:16:05;7.33;;;6.13;;
3443;SDS011;1736;52.068;6.968;2023-09-08T14:18:31;9.80;;;5.80;;
3443;SDS011;1736;52.068;6.968;2023-09-08T14:20:58;8.57;;;6.37;;
3443;SDS011;1736;52.068;6.968;2023-09-08T14:23:24;7.73;;;6.13;;
3443;SDS011;1736;52.068;6.968;2023-09-08T14:25:52;13.10;;;5.90;;
3443;SDS011;1736;52.068;6.968;2023-09-08T14:28:18;10.80;;;5.57;;
3443;SDS011;1736;52.068;6.968;2023-09-08T14:30:46;9.70;;;5.97;;
3443;SDS011;1736;52.068;6.968;2023-09-08T14:33:14;6.40;;;5.80;;
3443;SDS011;1736;52.068;6.968;2023-09-08T14:35:41;7.63;;;6.07;;
3443;SDS011;1736;52.068;6.968;2023-09-08T14:38:08;7.33;;;5.80;;
3443;SDS011;1736;52.068;6.968;2023-09-08T14:40:34;7.27;;;5.80;;
3443;SDS011;1736;52.068;6.968;2023-09-08T14:43:01;7.20;;;6.00;;
3443;SDS011;1736;52.068;6.968;2023-09-08T14:45:28;7.50;;;5.53;;
3443;SDS011;1736;52.068;6.968;2023-09-08T14:47:54;8.03;;;6.13;;
3443;SDS011;1736;52.068;6.968;2023-09-08T14:50:22;5.83;;;5.33;;
3443;SDS011;1736;52.068;6.968;2023-09-08T14:52:49;7.93;;;5.93;;
3443;SDS011;1736;52.068;6.968;2023-09-08T14:55:15;6.87;;;6.17;;
3443;SDS011;1736;52.068;6.968;2023-09-08T14:57:42;7.07;;;5.50;;
3443;SDS011;1736;52.068;6.968;2023-09-08T15:00:09;6.43;;;5.77;;
3443;SDS011;1736;52.068;6.968;2023-09-08T15:02:36;6.90;;;6.07;;
3443;SDS011;1736;52.068;6.968;2023-09-08T15:05:03;7.40;;;6.37;;
3443;SDS011;1736;52.068;6.968;2023-09-08T15:07:31;6.23;;;5.60;;
3443;SDS011;1736;52.068;6.968;2023-09-08T15:09:58;6.67;;;5.97;;
3443;SDS011;1736;52.068;6.968;2023-09-08T15:12:24;6.80;;;5.77;;